createdAt,value
2018-11-25T00:00:20.628Z,66.60
2018-11-25T00:02:49.248Z,66.60
2018-11-25T00:05:17.850Z,66.60
2018-11-25T00:07:46.447Z,66.50
2018-11-25T00:10:22.126Z,66.50
2018-11-25T00:12:50.815Z,66.60
2018-11-25T00:15:19.499Z,66.50
2018-11-25T00:17:48.158Z,66.50
2018-11-25T00:20:16.765Z,66.50
2018-11-25T00:22:45.398Z,66.50
2018-11-25T00:25:14.747Z,66.50
2018-11-25T00:27:43.364Z,66.50
2018-11-25T00:30:16.399Z,66.50
2018-11-25T00:32:45.106Z,66.40
2018-11-25T00:35:14.903Z,66.40
2018-11-25T00:37:47.991Z,66.40
2018-11-25T00:40:14.218Z,66.40
2018-11-25T00:42:43.188Z,66.40
2018-11-25T00:45:14.230Z,66.40
2018-11-25T00:47:42.859Z,66.40
2018-11-25T00:50:12.615Z,66.40
2018-11-25T00:52:41.261Z,66.30
2018-11-25T00:55:12.158Z,66.40
2018-11-25T00:57:40.767Z,66.20
2018-11-25T01:00:12.368Z,66.20
2018-11-25T01:02:41.079Z,66.30
2018-11-25T01:05:10.235Z,66.20
2018-11-25T01:07:38.886Z,66.20
2018-11-25T01:10:10.413Z,66.20
2018-11-25T01:12:39.048Z,66.20
2018-11-25T01:15:12.344Z,66.10
2018-11-25T01:17:41.035Z,66.30
2018-11-25T01:20:14.773Z,66.20
2018-11-25T01:22:43.400Z,66.10
2018-11-25T01:25:12.288Z,66.10
2018-11-25T01:27:40.866Z,66.10
2018-11-25T01:30:12.724Z,66.10
2018-11-25T01:32:41.385Z,66.10
2018-11-25T01:35:11.728Z,67.00
2018-11-25T01:37:40.449Z,66.20
2018-11-25T01:40:15.835Z,66.20
2018-11-25T01:42:44.570Z,66.10
2018-11-25T01:45:14.240Z,66.20
2018-11-25T01:47:42.875Z,66.10
2018-11-25T01:50:13.610Z,66.20
2018-11-25T01:52:42.233Z,66.20
2018-11-25T01:55:12.061Z,66.10
2018-11-25T01:57:40.700Z,66.00
2018-11-25T02:00:13.476Z,66.00
2018-11-25T02:02:42.151Z,66.00
2018-11-25T02:05:10.837Z,66.00
2018-11-25T02:07:39.465Z,66.00
2018-11-25T02:10:10.347Z,66.00
2018-11-25T02:12:38.971Z,66.00
2018-11-25T02:15:09.132Z,66.00
2018-11-25T02:17:37.763Z,66.00
2018-11-25T02:20:10.243Z,66.00
2018-11-25T02:22:38.868Z,66.00
2018-11-25T02:25:07.806Z,66.00
2018-11-25T02:27:36.419Z,66.00
2018-11-25T02:30:07.281Z,66.00
2018-11-25T02:32:35.889Z,66.00
2018-11-25T02:35:05.072Z,66.00
2018-11-25T02:37:33.679Z,66.00
2018-11-25T02:40:02.289Z,65.90
2018-11-25T02:42:30.883Z,65.90
2018-11-25T02:44:59.499Z,65.90
2018-11-25T02:47:28.094Z,65.90
2018-11-25T02:49:56.688Z,65.90
2018-11-25T02:52:25.331Z,65.90
2018-11-25T02:54:53.927Z,65.90
2018-11-25T02:57:23.488Z,65.90
2018-11-25T02:59:52.935Z,65.90
2018-11-25T03:02:21.813Z,65.90
2018-11-25T03:04:50.440Z,65.90
2018-11-25T03:07:19.061Z,65.90
2018-11-25T03:09:47.648Z,65.90
2018-11-25T03:12:16.275Z,65.80
2018-11-25T03:14:44.898Z,65.80
2018-11-25T03:17:13.504Z,65.80
2018-11-25T03:19:42.115Z,65.80
2018-11-25T03:22:10.717Z,65.80
2018-11-25T03:24:39.334Z,65.80
2018-11-25T03:27:07.931Z,65.80
2018-11-25T03:29:36.621Z,65.80
2018-11-25T03:32:05.284Z,65.80
2018-11-25T03:34:33.859Z,65.80
2018-11-25T03:37:02.484Z,65.80
2018-11-25T03:39:31.073Z,65.70
2018-11-25T03:41:59.695Z,65.80
2018-11-25T03:44:28.288Z,65.70
2018-11-25T03:46:56.890Z,65.80
2018-11-25T03:49:25.948Z,65.80
2018-11-25T03:51:54.528Z,65.70
2018-11-25T03:54:23.128Z,65.80
2018-11-25T03:56:51.743Z,65.60
2018-11-25T03:59:20.340Z,65.70
2018-11-25T04:01:48.975Z,65.70
2018-11-25T04:04:17.574Z,65.70
2018-11-25T04:06:46.161Z,65.70
2018-11-25T04:09:14.783Z,65.70
2018-11-25T04:11:43.392Z,65.70
2018-11-25T04:14:11.995Z,65.70
2018-11-25T04:16:40.596Z,65.70
2018-11-25T04:19:09.200Z,65.60
2018-11-25T04:21:37.812Z,65.60
2018-11-25T04:24:06.573Z,65.70
2018-11-25T04:26:35.191Z,65.70
2018-11-25T04:29:03.799Z,65.70
2018-11-25T04:31:32.387Z,65.50
2018-11-25T04:34:00.987Z,65.70
2018-11-25T04:36:29.608Z,65.50
2018-11-25T04:38:58.219Z,65.50
2018-11-25T04:41:26.847Z,65.50
2018-11-25T04:43:55.451Z,65.50
2018-11-25T04:46:24.048Z,65.50
2018-11-25T04:48:52.696Z,65.50
2018-11-25T04:51:21.319Z,65.40
2018-11-25T04:53:49.903Z,65.50
2018-11-25T04:56:18.487Z,65.40
2018-11-25T04:58:47.107Z,66.20
2018-11-25T05:01:15.696Z,65.40
2018-11-25T05:03:44.309Z,65.40
2018-11-25T05:06:12.904Z,65.40
2018-11-25T05:08:41.516Z,65.40
2018-11-25T05:11:10.140Z,65.30
2018-11-25T05:13:38.747Z,65.40
2018-11-25T05:16:07.343Z,65.30
2018-11-25T05:18:35.953Z,65.30
2018-11-25T05:21:04.582Z,65.30
2018-11-25T05:23:33.181Z,65.30
2018-11-25T05:26:01.868Z,65.30
2018-11-25T05:28:30.463Z,65.30
2018-11-25T05:30:59.075Z,65.30
2018-11-25T05:33:27.678Z,65.20
2018-11-25T05:35:56.275Z,65.30
2018-11-25T05:38:24.895Z,65.20
2018-11-25T05:40:53.727Z,65.20
2018-11-25T05:43:22.319Z,65.20
2018-11-25T05:45:50.918Z,65.30
2018-11-25T05:48:19.507Z,65.20
2018-11-25T05:50:48.139Z,65.20
2018-11-25T05:53:16.739Z,65.10
2018-11-25T05:55:45.812Z,65.10
2018-11-25T05:58:14.427Z,65.10
2018-11-25T06:00:43.106Z,65.10
2018-11-25T06:03:11.684Z,65.10
2018-11-25T06:05:40.275Z,65.10
2018-11-25T06:08:08.911Z,65.10
2018-11-25T06:10:37.511Z,65.80
2018-11-25T06:13:06.399Z,65.10
2018-11-25T06:15:35.168Z,65.10
2018-11-25T06:18:03.815Z,65.10
2018-11-25T06:20:32.417Z,65.10
2018-11-25T06:23:01.003Z,65.10
2018-11-25T06:25:29.618Z,65.00
2018-11-25T06:27:58.211Z,65.10
2018-11-25T06:30:26.831Z,65.00
2018-11-25T06:32:55.466Z,65.00
2018-11-25T06:35:24.084Z,65.00
2018-11-25T06:37:52.697Z,65.00
2018-11-25T06:40:21.380Z,65.00
2018-11-25T06:42:49.999Z,65.00
2018-11-25T06:45:20.949Z,65.00
2018-11-25T06:47:49.627Z,65.00
2018-11-25T06:50:18.233Z,65.00
2018-11-25T06:52:46.849Z,64.90
2018-11-25T06:55:15.494Z,64.90
2018-11-25T06:57:44.127Z,64.90
2018-11-25T07:00:17.575Z,64.90
2018-11-25T07:02:46.199Z,64.90
2018-11-25T07:05:14.837Z,64.90
2018-11-25T07:07:43.768Z,64.90
2018-11-25T07:10:20.275Z,64.80
2018-11-25T07:12:50.366Z,64.90
2018-11-25T07:15:19.266Z,64.90
2018-11-25T07:17:47.926Z,64.90
2018-11-25T07:20:17.275Z,64.80
2018-11-25T07:22:47.816Z,64.90
2018-11-25T07:25:18.354Z,64.80
2018-11-25T07:27:46.978Z,64.80
2018-11-25T07:30:22.419Z,64.80
2018-11-25T07:32:51.099Z,64.80
2018-11-25T07:35:19.740Z,64.80
2018-11-25T07:37:48.388Z,64.80
2018-11-25T07:40:18.755Z,64.80
2018-11-25T07:42:47.399Z,64.80
2018-11-25T07:45:30.105Z,64.80
2018-11-25T07:47:54.072Z,64.80
2018-11-25T07:50:23.049Z,64.70
2018-11-25T07:52:52.056Z,64.80
2018-11-25T07:55:22.874Z,64.80
2018-11-25T07:57:52.808Z,64.80
2018-11-25T08:00:22.460Z,64.80
2018-11-25T08:02:51.076Z,64.80
2018-11-25T08:05:21.788Z,64.90
2018-11-25T08:07:50.398Z,64.80
2018-11-25T08:10:19.007Z,64.80
2018-11-25T08:12:48.167Z,64.90
2018-11-25T08:15:18.658Z,64.80
2018-11-25T08:17:47.326Z,64.90
2018-11-25T08:20:17.663Z,64.90
2018-11-25T08:22:46.283Z,64.90
2018-11-25T08:25:18.627Z,64.90
2018-11-25T08:27:47.287Z,64.90
2018-11-25T08:30:19.914Z,65.00
2018-11-25T08:32:48.556Z,65.10
2018-11-25T08:35:17.582Z,65.10
2018-11-25T08:37:46.235Z,65.10
2018-11-25T08:40:24.005Z,65.00
2018-11-25T08:42:52.822Z,65.00
2018-11-25T08:45:21.486Z,65.10
2018-11-25T08:47:50.114Z,65.10
2018-11-25T08:50:20.262Z,65.20
2018-11-25T08:52:52.686Z,65.10
2018-11-25T08:55:23.197Z,65.10
2018-11-25T08:57:51.820Z,65.10
2018-11-25T09:00:21.471Z,65.10
2018-11-25T09:02:50.844Z,65.20
2018-11-25T09:05:19.452Z,65.20
2018-11-25T09:07:48.077Z,65.20
2018-11-25T09:10:18.553Z,65.30
2018-11-25T09:12:55.295Z,65.30
2018-11-25T09:15:29.675Z,65.30
2018-11-25T09:17:58.350Z,65.30
2018-11-25T09:20:26.986Z,65.30
2018-11-25T09:22:55.632Z,64.90
2018-11-25T09:25:26.394Z,65.30
2018-11-25T09:27:55.330Z,65.40
2018-11-25T09:30:26.025Z,65.40
2018-11-25T09:32:54.651Z,65.40
2018-11-25T09:35:23.703Z,65.40
2018-11-25T09:37:52.327Z,65.40
2018-11-25T09:40:24.076Z,65.40
2018-11-25T09:42:52.675Z,65.50
2018-11-25T09:45:21.380Z,65.50
2018-11-25T09:47:50.412Z,65.40
2018-11-25T09:50:21.575Z,65.50
2018-11-25T09:52:50.223Z,65.50
2018-11-25T09:55:20.780Z,65.50
2018-11-25T09:57:55.702Z,65.50
2018-11-25T10:00:26.484Z,65.50
2018-11-25T10:02:55.209Z,65.50
2018-11-25T10:05:23.901Z,65.50
2018-11-25T10:07:52.822Z,65.50
2018-11-25T10:10:22.659Z,65.60
2018-11-25T10:12:51.562Z,65.60
2018-11-25T10:15:23.059Z,65.60
2018-11-25T10:17:59.078Z,65.60
2018-11-25T10:20:21.460Z,65.70
2018-11-25T10:22:50.073Z,65.70
2018-11-25T10:25:18.756Z,65.70
2018-11-25T10:27:47.421Z,65.70
2018-11-25T10:30:20.919Z,65.70
2018-11-25T10:32:58.366Z,65.70
2018-11-25T10:35:26.961Z,65.70
2018-11-25T10:37:55.608Z,65.70
2018-11-25T10:40:24.875Z,65.80
2018-11-25T10:42:53.521Z,65.80
2018-11-25T10:45:26.279Z,65.80
2018-11-25T10:47:55.550Z,65.80
2018-11-25T10:50:24.312Z,65.80
2018-11-25T10:52:52.915Z,65.80
2018-11-25T10:55:28.144Z,65.80
2018-11-25T10:57:56.773Z,65.80
2018-11-25T11:00:33.012Z,65.80
2018-11-25T11:03:06.906Z,65.80
2018-11-25T11:05:58.946Z,65.80
2018-11-25T11:08:27.611Z,65.80
2018-11-25T11:10:56.230Z,65.90
2018-11-25T11:13:24.829Z,65.80
2018-11-25T11:15:53.450Z,65.90
2018-11-25T11:18:34.228Z,66.60
2018-11-25T11:21:02.861Z,65.90
2018-11-25T11:23:31.457Z,65.90
2018-11-25T11:26:06.670Z,66.10
2018-11-25T11:28:28.736Z,66.10
2018-11-25T11:30:57.346Z,66.10
2018-11-25T11:33:25.938Z,66.10
2018-11-25T11:35:55.920Z,66.10
2018-11-25T11:38:24.955Z,66.10
2018-11-25T11:40:53.574Z,66.10
2018-11-25T11:43:22.164Z,66.20
2018-11-25T11:45:50.747Z,65.90
2018-11-25T11:48:19.377Z,66.70
2018-11-25T11:50:48.007Z,66.20
2018-11-25T11:53:16.592Z,66.20
2018-11-25T11:55:45.195Z,66.20
2018-11-25T11:58:13.836Z,66.20
2018-11-25T12:00:42.472Z,66.20
2018-11-25T12:03:11.259Z,66.20
2018-11-25T12:05:39.862Z,66.20
2018-11-25T12:08:08.638Z,66.30
2018-11-25T12:10:37.236Z,66.20
2018-11-25T12:13:06.610Z,66.30
2018-11-25T12:15:35.246Z,66.30
2018-11-25T12:18:03.892Z,66.20
2018-11-25T12:20:32.691Z,66.40
2018-11-25T12:23:01.538Z,66.40
2018-11-25T12:25:30.168Z,66.40
2018-11-25T12:27:58.790Z,66.40
2018-11-25T12:30:27.423Z,66.40
2018-11-25T12:32:56.143Z,66.40
2018-11-25T12:35:24.768Z,66.40
2018-11-25T12:37:53.399Z,66.40
2018-11-25T12:40:22.904Z,66.40
2018-11-25T12:42:59.033Z,66.40
2018-11-25T12:45:28.145Z,66.40
2018-11-25T12:47:56.809Z,66.40
2018-11-25T12:50:26.389Z,66.40
2018-11-25T12:52:55.534Z,66.40
2018-11-25T12:55:25.259Z,66.40
2018-11-25T12:57:54.154Z,66.40
2018-11-25T13:00:30.191Z,66.50
2018-11-25T13:02:59.072Z,66.50
2018-11-25T13:05:27.958Z,66.40
2018-11-25T13:07:56.896Z,66.40
2018-11-25T13:10:25.543Z,66.40
2018-11-25T13:12:54.191Z,66.50
2018-11-25T13:15:22.839Z,66.40
2018-11-25T13:17:51.455Z,66.50
2018-11-25T13:20:20.041Z,66.50
2018-11-25T13:22:48.652Z,66.50
2018-11-25T13:25:17.863Z,66.50
2018-11-25T13:27:46.487Z,66.50
2018-11-25T13:30:23.755Z,66.60
2018-11-25T13:32:54.504Z,66.60
2018-11-25T13:35:23.319Z,66.60
2018-11-25T13:37:51.920Z,66.60
2018-11-25T13:40:20.550Z,66.60
2018-11-25T13:42:49.147Z,66.70
2018-11-25T13:45:17.796Z,66.70
2018-11-25T13:47:46.443Z,66.70
2018-11-25T13:50:15.024Z,66.70
2018-11-25T13:52:43.607Z,66.70
2018-11-25T13:55:15.736Z,66.70
2018-11-25T13:57:44.739Z,66.70
2018-11-25T14:00:19.775Z,66.70
2018-11-25T14:02:48.380Z,66.70
2018-11-25T14:05:17.311Z,66.70
2018-11-25T14:07:49.420Z,66.70
2018-11-25T14:10:23.123Z,66.70
2018-11-25T14:12:51.744Z,66.70
2018-11-25T14:15:20.364Z,66.70
2018-11-25T14:17:48.970Z,66.70
2018-11-25T14:20:17.579Z,66.70
2018-11-25T14:22:46.188Z,66.70
2018-11-25T14:25:16.522Z,66.70
2018-11-25T14:27:45.928Z,66.70
2018-11-25T14:30:20.266Z,66.70
2018-11-25T14:32:48.868Z,66.70
2018-11-25T14:35:17.921Z,66.70
2018-11-25T14:37:46.592Z,66.70
2018-11-25T14:40:16.748Z,66.70
2018-11-25T14:42:45.350Z,66.70
2018-11-25T14:45:16.384Z,66.70
2018-11-25T14:47:44.992Z,66.70
2018-11-25T14:50:14.964Z,66.70
2018-11-25T14:52:44.687Z,66.80
2018-11-25T14:55:14.066Z,66.80
2018-11-25T14:57:42.742Z,66.80
2018-11-25T15:00:12.948Z,66.80
2018-11-25T15:02:41.886Z,66.80
2018-11-25T15:05:16.856Z,66.80
2018-11-25T15:07:45.455Z,66.80
2018-11-25T15:10:14.049Z,66.80
2018-11-25T15:12:42.675Z,66.80
2018-11-25T15:15:12.781Z,66.80
2018-11-25T15:17:42.502Z,66.70
2018-11-25T15:20:12.163Z,66.80
2018-11-25T15:22:41.892Z,66.70
2018-11-25T15:25:15.627Z,66.80
2018-11-25T15:27:44.228Z,66.80
2018-11-25T15:30:14.872Z,66.80
2018-11-25T15:32:43.487Z,66.80
2018-11-25T15:35:12.901Z,66.90
2018-11-25T15:37:43.353Z,66.80
2018-11-25T15:40:14.881Z,66.80
2018-11-25T15:42:43.500Z,66.80
2018-11-25T15:45:12.235Z,66.90
2018-11-25T15:47:42.681Z,66.90
2018-11-25T15:50:14.050Z,66.90
2018-11-25T15:52:42.705Z,67.00
2018-11-25T15:55:13.847Z,66.90
2018-11-25T15:57:42.451Z,66.90
2018-11-25T16:00:14.005Z,67.00
2018-11-25T16:02:42.640Z,66.90
2018-11-25T16:05:15.778Z,66.90
2018-11-25T16:07:44.432Z,66.90
2018-11-25T16:10:16.701Z,66.90
2018-11-25T16:12:46.665Z,66.90
2018-11-25T16:15:16.568Z,66.90
2018-11-25T16:17:45.208Z,66.90
2018-11-25T16:20:19.193Z,66.90
2018-11-25T16:22:49.248Z,66.90
2018-11-25T16:25:21.962Z,67.00
2018-11-25T16:27:52.365Z,66.90
2018-11-25T16:30:20.991Z,67.00
2018-11-25T16:32:49.621Z,66.90
2018-11-25T16:35:18.220Z,67.00
2018-11-25T16:37:46.849Z,67.00
2018-11-25T16:40:16.422Z,67.00
2018-11-25T16:42:45.223Z,67.00
2018-11-25T16:45:15.129Z,67.00
2018-11-25T16:47:43.815Z,67.00
2018-11-25T16:50:24.986Z,67.00
2018-11-25T16:52:46.307Z,67.00
2018-11-25T16:55:15.598Z,67.00
2018-11-25T16:57:44.764Z,67.00
2018-11-25T17:00:16.653Z,67.10
2018-11-25T17:02:45.292Z,67.10
2018-11-25T17:05:23.218Z,67.00
2018-11-25T17:07:53.771Z,67.10
2018-11-25T17:10:22.372Z,67.00
2018-11-25T17:12:51.116Z,67.10
2018-11-25T17:15:21.401Z,67.10
2018-11-25T17:17:50.019Z,67.10
2018-11-25T17:20:18.665Z,67.10
2018-11-25T17:22:47.264Z,67.10
2018-11-25T17:25:15.881Z,67.00
2018-11-25T17:27:44.555Z,68.00
2018-11-25T17:30:17.240Z,67.10
2018-11-25T17:32:47.100Z,67.10
2018-11-25T17:35:18.443Z,67.00
2018-11-25T17:37:47.079Z,67.10
2018-11-25T17:40:15.683Z,67.10
2018-11-25T17:42:44.307Z,67.00
2018-11-25T17:45:13.499Z,67.10
2018-11-25T17:47:42.551Z,67.10
2018-11-25T17:50:20.411Z,67.00
2018-11-25T17:52:49.403Z,67.20
2018-11-25T17:55:19.122Z,67.00
2018-11-25T17:57:47.782Z,67.10
2018-11-25T18:00:33.087Z,67.10
2018-11-25T18:03:01.687Z,67.00
2018-11-25T18:05:38.423Z,67.20
2018-11-25T18:07:59.324Z,67.10
2018-11-25T18:10:27.953Z,67.10
2018-11-25T18:12:56.560Z,67.10
2018-11-25T18:15:25.194Z,67.10
2018-11-25T18:18:10.743Z,67.10
2018-11-25T18:20:42.703Z,67.10
2018-11-25T18:23:11.306Z,67.10
2018-11-25T18:25:39.907Z,67.10
2018-11-25T18:28:08.644Z,67.10
2018-11-25T18:30:37.243Z,67.10
2018-11-25T18:33:05.899Z,67.10
2018-11-25T18:35:34.522Z,67.10
2018-11-25T18:38:03.127Z,67.10
2018-11-25T18:40:31.752Z,67.10
2018-11-25T18:43:00.348Z,67.10
2018-11-25T18:45:28.978Z,67.10
2018-11-25T18:47:57.595Z,67.10
2018-11-25T18:50:26.187Z,67.10
2018-11-25T18:52:55.220Z,67.10
2018-11-25T18:55:22.604Z,67.10
2018-11-25T18:57:51.411Z,67.10
2018-11-25T19:00:36.836Z,67.10
2018-11-25T19:03:05.651Z,67.10
2018-11-25T19:05:34.362Z,67.10
2018-11-25T19:08:02.968Z,67.10
2018-11-25T19:10:31.595Z,67.10
2018-11-25T19:13:00.192Z,67.10
2018-11-25T19:15:28.848Z,67.10
2018-11-25T19:17:57.476Z,67.10
2018-11-25T19:20:27.247Z,67.10
2018-11-25T19:22:56.635Z,67.10
2018-11-25T19:25:25.234Z,67.10
2018-11-25T19:27:54.391Z,67.10
2018-11-25T19:30:26.724Z,67.10
2018-11-25T19:32:51.670Z,67.10
2018-11-25T19:35:21.513Z,67.10
2018-11-25T19:37:50.996Z,67.10
2018-11-25T19:40:21.227Z,67.10
2018-11-25T19:42:50.076Z,67.10
2018-11-25T19:45:21.044Z,67.10
2018-11-25T19:47:49.697Z,67.10
2018-11-25T19:50:21.060Z,67.10
2018-11-25T19:52:49.652Z,67.10
2018-11-25T19:55:18.307Z,67.10
2018-11-25T19:57:46.936Z,67.10
2018-11-25T20:00:17.769Z,67.00
2018-11-25T20:02:46.417Z,67.10
2018-11-25T20:05:15.118Z,67.10
2018-11-25T20:07:44.168Z,67.10
2018-11-25T20:10:15.183Z,67.10
2018-11-25T20:12:46.743Z,67.10
2018-11-25T20:15:17.271Z,67.10
2018-11-25T20:17:54.126Z,67.10
2018-11-25T20:20:17.027Z,67.80
2018-11-25T20:22:45.872Z,67.10
2018-11-25T20:25:15.053Z,67.10
2018-11-25T20:27:59.159Z,66.90
2018-11-25T20:30:29.449Z,67.00
2018-11-25T20:33:03.311Z,67.00
2018-11-25T20:35:31.993Z,67.00
2018-11-25T20:38:06.043Z,66.90
2018-11-25T20:40:34.659Z,66.90
2018-11-25T20:43:03.269Z,67.00
2018-11-25T20:45:39.051Z,67.10
2018-11-25T20:48:06.123Z,66.90
2018-11-25T20:50:34.743Z,67.00
2018-11-25T20:53:08.724Z,67.70
2018-11-25T20:55:37.431Z,67.00
2018-11-25T20:58:07.621Z,67.00
2018-11-25T21:00:36.444Z,66.90
2018-11-25T21:03:05.899Z,67.00
2018-11-25T21:05:34.528Z,66.90
2018-11-25T21:08:03.180Z,67.00
2018-11-25T21:10:31.793Z,67.00
2018-11-25T21:13:00.785Z,67.00
2018-11-25T21:15:29.376Z,66.90
2018-11-25T21:17:58.000Z,67.00
2018-11-25T21:20:27.075Z,67.00
2018-11-25T21:22:55.703Z,67.00
2018-11-25T21:25:24.528Z,67.00
2018-11-25T21:27:54.176Z,67.00
2018-11-25T21:30:25.006Z,67.00
2018-11-25T21:32:55.860Z,66.90
2018-11-25T21:35:24.467Z,67.00
2018-11-25T21:37:53.097Z,67.00
2018-11-25T21:40:33.653Z,66.80
2018-11-25T21:43:02.632Z,66.90
2018-11-25T21:45:31.263Z,67.00
2018-11-25T21:47:59.952Z,66.90
2018-11-25T21:50:29.235Z,66.80
2018-11-25T21:52:57.907Z,67.00
2018-11-25T21:55:26.533Z,66.90
2018-11-25T21:57:55.168Z,66.80
2018-11-25T22:00:24.823Z,66.80
2018-11-25T22:02:53.428Z,67.00
2018-11-25T22:05:24.835Z,66.90
2018-11-25T22:07:50.707Z,66.90
2018-11-25T22:10:20.365Z,66.80
2018-11-25T22:12:49.515Z,66.90
2018-11-25T22:15:21.529Z,66.90
2018-11-25T22:17:50.239Z,66.60
2018-11-25T22:20:19.139Z,66.90
2018-11-25T22:22:47.772Z,66.90
2018-11-25T22:25:17.606Z,66.90
2018-11-25T22:27:46.289Z,66.90
2018-11-25T22:30:15.979Z,66.90
2018-11-25T22:32:44.623Z,66.90
2018-11-25T22:35:27.642Z,66.90
2018-11-25T22:38:08.852Z,66.90
2018-11-25T22:40:49.292Z,66.90
2018-11-25T22:43:31.236Z,66.80
2018-11-25T22:46:11.684Z,66.80
2018-11-25T22:48:52.490Z,66.90
2018-11-25T22:51:32.701Z,66.90
2018-11-25T22:54:13.624Z,66.90
2018-11-25T22:56:55.801Z,66.90
2018-11-25T22:59:36.402Z,66.90
2018-11-25T23:02:17.656Z,67.60
2018-11-25T23:05:03.250Z,66.80
2018-11-25T23:07:44.087Z,66.90
2018-11-25T23:10:24.622Z,67.50
2018-11-25T23:13:04.692Z,66.90
2018-11-25T23:15:47.890Z,67.80
2018-11-25T23:18:28.075Z,67.00
2018-11-25T23:21:09.405Z,66.90
2018-11-25T23:23:49.623Z,66.90
2018-11-25T23:26:32.211Z,66.90
2018-11-25T23:29:12.571Z,66.90
2018-11-25T23:31:53.115Z,67.00
2018-11-25T23:34:35.766Z,67.00
2018-11-25T23:37:16.403Z,67.00
2018-11-25T23:39:56.598Z,66.90
2018-11-25T23:42:37.192Z,67.00
2018-11-25T23:45:21.088Z,66.90
2018-11-25T23:48:01.755Z,67.00
2018-11-25T23:50:43.990Z,67.00
2018-11-25T23:53:23.997Z,67.00
2018-11-25T23:56:04.682Z,67.00
2018-11-25T23:58:45.807Z,67.00
